Brest-pilote — FN9820 — position and weather

sailwx.info

Track history (hours):
 
Tides and Currents Weather Stations Pressure Air Temp Water Temp Dewpoint Dewpoint Depression Visibility Wind Speed Wind Dir Waves Ship Positions

Brest-pilote

Last reported at 2017-Nov-19 15:07 UTC. Time now 2017-Nov-23 11:03 UTC.
Position N 48°23' W 004°29'.

Length 14 m.

Type: Pilot. MMSI: 227005550.

Date/timePositionNaut miles runAvg speedWind from/ knotsBaromVisibWave heightAir tempDewpointWater temp
2017-Nov-19 15:07N 48°23' W 004°29'216.6
2017-Nov-19 15:01N 48°21' W 004°31'2 4.9
2017-Nov-19 14:31N 48°21' W 004°34'2 4.3
2017-Nov-19 14:01N 48°21' W 004°31'1 2.1
2017-Nov-19 13:30N 48°22' W 004°30'1 0.1
2017-Nov-19 05:00N 48°23' W 004°29'918.6
2017-Nov-19 04:31N 48°18' W 004°41'918.3
2017-Nov-19 04:00N 48°23' W 004°29'0 0.4
2017-Nov-19 03:31N 48°23' W 004°29'612.9
2017-Nov-19 03:01N 48°20' W 004°38'612.9
2017-Nov-19 02:30N 48°23' W 004°29'0 0.0
2017-Nov-18 08:48N 48°23' W 004°29'0 1.1
2017-Nov-18 08:30N 48°23' W 004°29'612.4
2017-Nov-18 08:01N 48°20' W 004°37'510.8
2017-Nov-18 07:30N 48°22' W 004°29'1 0.1
2017-Nov-17 21:27N 48°23' W 004°29'818.5
2017-Nov-17 21:00N 48°19' W 004°40'815.1
2017-Nov-17 20:30N 48°22' W 004°29'1 0.5
2017-Nov-17 19:22N 48°23' W 004°29'0 1.2
2017-Nov-17 19:00N 48°22' W 004°29'0 0.1
2017-Nov-17 15:37N 48°22' W 004°29'218.0
2017-Nov-17 15:31N 48°21' W 004°32'1 2.1
2017-Nov-17 15:00N 48°21' W 004°30'2 0.2
2017-Nov-17 08:13N 48°23' W 004°29'316.0
2017-Nov-17 08:01N 48°21' W 004°33'3 6.3
2017-Nov-17 07:31N 48°22' W 004°29'0 0.8
2017-Nov-17 07:00N 48°23' W 004°29'815.9
2017-Nov-17 06:31N 48°19' W 004°39'713.2
2017-Nov-17 06:00N 48°21' W 004°30'3 5.7
2017-Nov-17 05:31N 48°20' W 004°34'510.7
2017-Nov-17 05:00N 48°18' W 004°41'918.7
2017-Nov-17 04:30N 48°23' W 004°29'0 0.0
2017-Nov-16 20:51N 48°23' W 004°29'515.0
2017-Nov-16 20:31N 48°20' W 004°36'2 4.8
2017-Nov-16 20:01N 48°21' W 004°33'3 0.4
2017-Nov-16 13:08N 48°23' W 004°29'215.5
2017-Nov-16 13:01N 48°21' W 004°31'0 0.3
2017-Nov-16 12:31N 48°21' W 004°31'2 0.1
2017-Nov-15 22:34N 48°23' W 004°29'1 8.3
2017-Nov-15 22:30N 48°22' W 004°29'1 1.2
2017-Nov-15 22:00N 48°23' W 004°29'0 0.2
2017-Nov-15 20:00N 48°22' W 004°29'4 7.4
2017-Nov-15 19:30N 48°20' W 004°34'4 8.0
2017-Nov-15 19:00N 48°23' W 004°29'0 0.6
2017-Nov-15 18:30N 48°23' W 004°29'918.3
2017-Nov-15 18:00N 48°18' W 004°41'918.3
2017-Nov-15 17:30N 48°23' W 004°29'0 0.0
2017-Nov-14 15:44N 48°22' W 004°29'314.9
2017-Nov-14 15:30N 48°21' W 004°34'3 2.5
2017-Nov-14 14:07N 48°22' W 004°29'217.4
2017-Nov-14 14:00N 48°21' W 004°32'510.2
2017-Nov-14 13:31N 48°19' W 004°39'714.3
2017-Nov-14 13:00N 48°23' W 004°29'  
2017-Nov-11 08:42N 48°23' W 004°29'2 9.0
2017-Nov-11 08:31N 48°21' W 004°31'1 1.2
2017-Nov-11 08:00N 48°21' W 004°32'3 5.2
2017-Nov-11 07:30N 48°23' W 004°29'0 0.0
2017-Nov-10 18:42N 48°23' W 004°29'420.0
2017-Nov-10 18:31N 48°21' W 004°34'612.2
2017-Nov-10 18:00N 48°18' W 004°42'1019.3
2017-Nov-10 17:31N 48°22' W 004°29'1 0.4
2017-Nov-10 15:37N 48°23' W 004°29'0 4.6
2017-Nov-10 15:30N 48°22' W 004°30'1 1.3
2017-Nov-10 15:00N 48°22' W 004°29'1 0.1
2017-Nov-10 08:39N 48°23' W 004°29'0 2.2
2017-Nov-10 08:30N 48°22' W 004°30'1 1.6
2017-Nov-10 08:00N 48°22' W 004°31'1 0.1
2017-Nov-09 19:46N 48°23' W 004°29'1 4.8
2017-Nov-09 19:31N 48°22' W 004°30'  
Track history (hours):
 
Tides and Currents Weather Stations Pressure Air Temp Water Temp Dewpoint Dewpoint Depression Visibility Wind Speed Wind Dir Waves Ship Positions

Brest-pilote

Last reported at 2017-Nov-19 15:07 UTC. Time now 2017-Nov-23 11:03 UTC.
Position N 48°23' W 004°29'.

Length 14 m.

Type: Pilot. MMSI: 227005550.

Date/timePositionNaut miles runAvg speedWind from/ knotsBaromVisibWave heightAir tempDewpointWater temp
2017-Nov-19 15:07N 48°23' W 004°29'216.6
2017-Nov-19 15:01N 48°21' W 004°31'2 4.9
2017-Nov-19 14:31N 48°21' W 004°34'2 4.3
2017-Nov-19 14:01N 48°21' W 004°31'1 2.1
2017-Nov-19 13:30N 48°22' W 004°30'1 0.1
2017-Nov-19 05:00N 48°23' W 004°29'918.6
2017-Nov-19 04:31N 48°18' W 004°41'918.3
2017-Nov-19 04:00N 48°23' W 004°29'0 0.4
2017-Nov-19 03:31N 48°23' W 004°29'612.9
2017-Nov-19 03:01N 48°20' W 004°38'612.9
2017-Nov-19 02:30N 48°23' W 004°29'0 0.0
2017-Nov-18 08:48N 48°23' W 004°29'0 1.1
2017-Nov-18 08:30N 48°23' W 004°29'612.4
2017-Nov-18 08:01N 48°20' W 004°37'510.8
2017-Nov-18 07:30N 48°22' W 004°29'1 0.1
2017-Nov-17 21:27N 48°23' W 004°29'818.5
2017-Nov-17 21:00N 48°19' W 004°40'815.1
2017-Nov-17 20:30N 48°22' W 004°29'1 0.5
2017-Nov-17 19:22N 48°23' W 004°29'0 1.2
2017-Nov-17 19:00N 48°22' W 004°29'0 0.1
2017-Nov-17 15:37N 48°22' W 004°29'218.0
2017-Nov-17 15:31N 48°21' W 004°32'1 2.1
2017-Nov-17 15:00N 48°21' W 004°30'2 0.2
2017-Nov-17 08:13N 48°23' W 004°29'316.0
2017-Nov-17 08:01N 48°21' W 004°33'3 6.3
2017-Nov-17 07:31N 48°22' W 004°29'0 0.8
2017-Nov-17 07:00N 48°23' W 004°29'815.9
2017-Nov-17 06:31N 48°19' W 004°39'713.2
2017-Nov-17 06:00N 48°21' W 004°30'3 5.7
2017-Nov-17 05:31N 48°20' W 004°34'510.7
2017-Nov-17 05:00N 48°18' W 004°41'918.7
2017-Nov-17 04:30N 48°23' W 004°29'0 0.0
2017-Nov-16 20:51N 48°23' W 004°29'515.0
2017-Nov-16 20:31N 48°20' W 004°36'2 4.8
2017-Nov-16 20:01N 48°21' W 004°33'3 0.4
2017-Nov-16 13:08N 48°23' W 004°29'215.5
2017-Nov-16 13:01N 48°21' W 004°31'0 0.3
2017-Nov-16 12:31N 48°21' W 004°31'2 0.1
2017-Nov-15 22:34N 48°23' W 004°29'1 8.3
2017-Nov-15 22:30N 48°22' W 004°29'1 1.2
2017-Nov-15 22:00N 48°23' W 004°29'0 0.2
2017-Nov-15 20:00N 48°22' W 004°29'4 7.4
2017-Nov-15 19:30N 48°20' W 004°34'4 8.0
2017-Nov-15 19:00N 48°23' W 004°29'0 0.6
2017-Nov-15 18:30N 48°23' W 004°29'918.3
2017-Nov-15 18:00N 48°18' W 004°41'918.3
2017-Nov-15 17:30N 48°23' W 004°29'0 0.0
2017-Nov-14 15:44N 48°22' W 004°29'314.9
2017-Nov-14 15:30N 48°21' W 004°34'3 2.5
2017-Nov-14 14:07N 48°22' W 004°29'217.4
2017-Nov-14 14:00N 48°21' W 004°32'510.2
2017-Nov-14 13:31N 48°19' W 004°39'714.3
2017-Nov-14 13:00N 48°23' W 004°29'  
2017-Nov-11 08:42N 48°23' W 004°29'2 9.0
2017-Nov-11 08:31N 48°21' W 004°31'1 1.2
2017-Nov-11 08:00N 48°21' W 004°32'3 5.2
2017-Nov-11 07:30N 48°23' W 004°29'0 0.0
2017-Nov-10 18:42N 48°23' W 004°29'420.0
2017-Nov-10 18:31N 48°21' W 004°34'612.2
2017-Nov-10 18:00N 48°18' W 004°42'1019.3
2017-Nov-10 17:31N 48°22' W 004°29'1 0.4
2017-Nov-10 15:37N 48°23' W 004°29'0 4.6
2017-Nov-10 15:30N 48°22' W 004°30'1 1.3
2017-Nov-10 15:00N 48°22' W 004°29'1 0.1
2017-Nov-10 08:39N 48°23' W 004°29'0 2.2
2017-Nov-10 08:30N 48°22' W 004°30'1 1.6
2017-Nov-10 08:00N 48°22' W 004°31'1 0.1
2017-Nov-09 19:46N 48°23' W 004°29'1 4.8
2017-Nov-09 19:31N 48°22' W 004°30'  

Dump ship's entire track history